Terminal Aerodrome Forecast
Issued by NWS Sterling, VA

Current Version | Previous Version | Graphics & Text | Print | Product List | Glossary On
Versions: 1 2 3 4 5 6 7 8 9 10 11 12 13 14 15 16 17 18 19 20 21
191
FTUS41 KLWX 241451 AAA
TAFIAD
TAF AMD
KIAD 241451Z 2415/2518 19005KT P6SM SCT250
     FM241600 18005KT P6SM SCT050
     FM251400 20006KT P6SM BKN050=

USA.gov is the U.S. government's official web portal to all federal, state and local government web resources and services.